sensor_id;sensor_type;location;lat;lon;timestamp;temperature;humidity
23755;DHT22;12057;52.042;6.830;2022-09-24T00:04:05;13.60;99.90
23755;DHT22;12057;52.042;6.830;2022-09-24T00:09:07;13.60;99.90
23755;DHT22;12057;52.042;6.830;2022-09-24T00:14:08;13.60;99.90
23755;DHT22;12057;52.042;6.830;2022-09-24T00:19:09;13.60;99.90
23755;DHT22;12057;52.042;6.830;2022-09-24T00:24:13;13.60;99.90
23755;DHT22;12057;52.042;6.830;2022-09-24T00:29:33;13.60;99.90
23755;DHT22;12057;52.042;6.830;2022-09-24T00:34:34;13.60;99.90
23755;DHT22;12057;52.042;6.830;2022-09-24T00:39:35;13.60;99.90
23755;DHT22;12057;52.042;6.830;2022-09-24T00:49:45;13.70;99.90
23755;DHT22;12057;52.042;6.830;2022-09-24T00:54:47;13.70;99.90
23755;DHT22;12057;52.042;6.830;2022-09-24T00:59:48;13.70;99.90
23755;DHT22;12057;52.042;6.830;2022-09-24T01:04:49;13.70;99.90
23755;DHT22;12057;52.042;6.830;2022-09-24T01:09:49;13.70;99.90
23755;DHT22;12057;52.042;6.830;2022-09-24T01:25:01;13.70;99.90
23755;DHT22;12057;52.042;6.830;2022-09-24T01:30:08;13.60;99.90
23755;DHT22;12057;52.042;6.830;2022-09-24T01:40:15;13.70;99.90
23755;DHT22;12057;52.042;6.830;2022-09-24T01:45:17;13.60;99.90
23755;DHT22;12057;52.042;6.830;2022-09-24T01:50:19;13.60;99.90
23755;DHT22;12057;52.042;6.830;2022-09-24T01:55:20;13.60;99.90
23755;DHT22;12057;52.042;6.830;2022-09-24T02:00:23;13.60;99.90
23755;DHT22;12057;52.042;6.830;2022-09-24T02:10:25;13.50;99.90
23755;DHT22;12057;52.042;6.830;2022-09-24T02:15:33;13.50;99.90
23755;DHT22;12057;52.042;6.830;2022-09-24T02:20:37;13.50;99.90
23755;DHT22;12057;52.042;6.830;2022-09-24T02:25:46;13.50;99.90
23755;DHT22;12057;52.042;6.830;2022-09-24T02:30:50;13.50;99.90
23755;DHT22;12057;52.042;6.830;2022-09-24T02:35:52;13.50;99.90
23755;DHT22;12057;52.042;6.830;2022-09-24T02:40:53;13.50;99.90
23755;DHT22;12057;52.042;6.830;2022-09-24T02:45:54;13.50;99.90
23755;DHT22;12057;52.042;6.830;2022-09-24T02:50:55;13.40;99.90
23755;DHT22;12057;52.042;6.830;2022-09-24T02:55:55;13.40;99.90
23755;DHT22;12057;52.042;6.830;2022-09-24T03:00:56;13.40;99.90
23755;DHT22;12057;52.042;6.830;2022-09-24T03:05:57;13.40;99.90
23755;DHT22;12057;52.042;6.830;2022-09-24T03:10:58;13.40;99.90
23755;DHT22;12057;52.042;6.830;2022-09-24T03:15:59;13.30;99.90
23755;DHT22;12057;52.042;6.830;2022-09-24T03:21:01;13.30;99.90
23755;DHT22;12057;52.042;6.830;2022-09-24T03:26:03;13.30;99.90
23755;DHT22;12057;52.042;6.830;2022-09-24T03:31:04;13.30;99.90
23755;DHT22;12057;52.042;6.830;2022-09-24T03:36:08;13.30;99.90
23755;DHT22;12057;52.042;6.830;2022-09-24T03:41:10;13.30;99.90
23755;DHT22;12057;52.042;6.830;2022-09-24T03:46:11;13.40;99.90
23755;DHT22;12057;52.042;6.830;2022-09-24T03:51:15;13.40;99.90
23755;DHT22;12057;52.042;6.830;2022-09-24T03:56:17;13.40;99.90
23755;DHT22;12057;52.042;6.830;2022-09-24T04:01:18;13.40;99.90
23755;DHT22;12057;52.042;6.830;2022-09-24T04:06:20;13.40;99.90
23755;DHT22;12057;52.042;6.830;2022-09-24T04:11:21;13.40;99.90
23755;DHT22;12057;52.042;6.830;2022-09-24T04:16:21;13.40;99.90
23755;DHT22;12057;52.042;6.830;2022-09-24T04:21:22;13.40;99.90
23755;DHT22;12057;52.042;6.830;2022-09-24T04:26:23;13.40;99.90
23755;DHT22;12057;52.042;6.830;2022-09-24T04:31:23;13.40;99.90
23755;DHT22;12057;52.042;6.830;2022-09-24T04:36:26;13.40;99.90
23755;DHT22;12057;52.042;6.830;2022-09-24T04:41:26;13.40;99.90
23755;DHT22;12057;52.042;6.830;2022-09-24T04:46:27;13.40;99.90
23755;DHT22;12057;52.042;6.830;2022-09-24T04:51:28;13.40;99.90
23755;DHT22;12057;52.042;6.830;2022-09-24T04:56:28;13.40;99.90
23755;DHT22;12057;52.042;6.830;2022-09-24T05:01:30;13.50;99.90
23755;DHT22;12057;52.042;6.830;2022-09-24T05:06:31;13.50;99.90
23755;DHT22;12057;52.042;6.830;2022-09-24T05:11:32;13.40;99.90
23755;DHT22;12057;52.042;6.830;2022-09-24T05:16:33;13.40;99.90
23755;DHT22;12057;52.042;6.830;2022-09-24T05:21:33;13.40;99.90
23755;DHT22;12057;52.042;6.830;2022-09-24T05:26:34;13.40;99.90
23755;DHT22;12057;52.042;6.830;2022-09-24T05:31:53;13.30;99.90
23755;DHT22;12057;52.042;6.830;2022-09-24T05:36:54;13.40;99.90
23755;DHT22;12057;52.042;6.830;2022-09-24T05:41:55;13.30;99.90
23755;DHT22;12057;52.042;6.830;2022-09-24T05:46:56;13.40;99.90
23755;DHT22;12057;52.042;6.830;2022-09-24T05:51:58;13.30;99.90
23755;DHT22;12057;52.042;6.830;2022-09-24T05:56:59;13.40;99.90
23755;DHT22;12057;52.042;6.830;2022-09-24T06:02:00;13.40;99.90
23755;DHT22;12057;52.042;6.830;2022-09-24T06:07:00;13.40;99.90
23755;DHT22;12057;52.042;6.830;2022-09-24T06:12:02;13.40;99.90
23755;DHT22;12057;52.042;6.830;2022-09-24T06:17:07;13.40;99.90
23755;DHT22;12057;52.042;6.830;2022-09-24T06:22:07;13.50;99.90
23755;DHT22;12057;52.042;6.830;2022-09-24T06:27:09;13.50;99.90
23755;DHT22;12057;52.042;6.830;2022-09-24T06:32:11;13.50;99.90
23755;DHT22;12057;52.042;6.830;2022-09-24T06:37:12;13.60;99.90
23755;DHT22;12057;52.042;6.830;2022-09-24T06:42:13;13.60;99.90
23755;DHT22;12057;52.042;6.830;2022-09-24T06:47:13;13.70;99.90
23755;DHT22;12057;52.042;6.830;2022-09-24T06:52:14;13.70;99.90
23755;DHT22;12057;52.042;6.830;2022-09-24T06:57:16;13.80;99.90
23755;DHT22;12057;52.042;6.830;2022-09-24T07:02:16;13.80;99.90
23755;DHT22;12057;52.042;6.830;2022-09-24T07:07:17;13.80;99.90
23755;DHT22;12057;52.042;6.830;2022-09-24T07:12:33;13.90;99.90
23755;DHT22;12057;52.042;6.830;2022-09-24T07:17:33;14.00;99.90
23755;DHT22;12057;52.042;6.830;2022-09-24T07:22:38;14.10;99.90
23755;DHT22;12057;52.042;6.830;2022-09-24T07:27:39;14.10;99.90
23755;DHT22;12057;52.042;6.830;2022-09-24T07:32:40;14.10;99.90
23755;DHT22;12057;52.042;6.830;2022-09-24T07:37:40;14.20;99.90
23755;DHT22;12057;52.042;6.830;2022-09-24T07:42:45;14.20;99.90
23755;DHT22;12057;52.042;6.830;2022-09-24T07:47:46;14.20;99.90
23755;DHT22;12057;52.042;6.830;2022-09-24T07:52:50;14.30;99.90
23755;DHT22;12057;52.042;6.830;2022-09-24T07:57:51;14.30;99.90
23755;DHT22;12057;52.042;6.830;2022-09-24T08:02:52;14.30;99.90
23755;DHT22;12057;52.042;6.830;2022-09-24T08:07:56;14.30;99.90
23755;DHT22;12057;52.042;6.830;2022-09-24T08:13:00;14.40;99.90
23755;DHT22;12057;52.042;6.830;2022-09-24T08:18:01;14.50;99.90
23755;DHT22;12057;52.042;6.830;2022-09-24T08:23:07;14.60;99.90
23755;DHT22;12057;52.042;6.830;2022-09-24T08:28:09;14.80;99.90
23755;DHT22;12057;52.042;6.830;2022-09-24T08:33:16;14.90;99.90
23755;DHT22;12057;52.042;6.830;2022-09-24T08:38:16;15.00;99.90
23755;DHT22;12057;52.042;6.830;2022-09-24T08:48:27;15.10;99.90
23755;DHT22;12057;52.042;6.830;2022-09-24T09:04:12;15.20;99.90
23755;DHT22;12057;52.042;6.830;2022-09-24T09:09:19;15.30;99.90
23755;DHT22;12057;52.042;6.830;2022-09-24T09:14:23;15.30;99.90
23755;DHT22;12057;52.042;6.830;2022-09-24T09:19:27;15.30;99.90
23755;DHT22;12057;52.042;6.830;2022-09-24T09:24:39;15.40;99.90
23755;DHT22;12057;52.042;6.830;2022-09-24T09:30:16;15.40;99.90
23755;DHT22;12057;52.042;6.830;2022-09-24T09:45:17;15.70;99.90
23755;DHT22;12057;52.042;6.830;2022-09-24T09:55:33;15.80;99.90
23755;DHT22;12057;52.042;6.830;2022-09-24T10:00:34;15.70;99.90
23755;DHT22;12057;52.042;6.830;2022-09-24T10:05:35;15.70;99.90
23755;DHT22;12057;52.042;6.830;2022-09-24T10:10:36;15.60;99.90
23755;DHT22;12057;52.042;6.830;2022-09-24T10:15:53;15.60;99.90
23755;DHT22;12057;52.042;6.830;2022-09-24T10:20:54;15.60;99.90
23755;DHT22;12057;52.042;6.830;2022-09-24T10:25:59;15.70;99.90
23755;DHT22;12057;52.042;6.830;2022-09-24T10:31:03;15.70;99.90
23755;DHT22;12057;52.042;6.830;2022-09-24T10:36:05;15.50;99.90
23755;DHT22;12057;52.042;6.830;2022-09-24T10:41:14;15.40;99.90
23755;DHT22;12057;52.042;6.830;2022-09-24T11:12:09;15.70;99.90
23755;DHT22;12057;52.042;6.830;2022-09-24T11:22:21;15.70;99.90
23755;DHT22;12057;52.042;6.830;2022-09-24T11:48:03;15.80;99.90
23755;DHT22;12057;52.042;6.830;2022-09-24T11:53:11;15.80;99.90
23755;DHT22;12057;52.042;6.830;2022-09-24T11:58:14;15.80;99.90
23755;DHT22;12057;52.042;6.830;2022-09-24T12:03:17;15.80;99.90
23755;DHT22;12057;52.042;6.830;2022-09-24T12:08:24;15.70;99.90
23755;DHT22;12057;52.042;6.830;2022-09-24T12:18:32;15.60;99.90
23755;DHT22;12057;52.042;6.830;2022-09-24T12:23:36;15.70;99.90
23755;DHT22;12057;52.042;6.830;2022-09-24T12:28:42;15.70;99.90
23755;DHT22;12057;52.042;6.830;2022-09-24T12:34:07;15.70;99.90
23755;DHT22;12057;52.042;6.830;2022-09-24T12:39:11;15.70;99.90
23755;DHT22;12057;52.042;6.830;2022-09-24T12:44:28;15.70;99.90
23755;DHT22;12057;52.042;6.830;2022-09-24T12:49:31;15.80;99.90
23755;DHT22;12057;52.042;6.830;2022-09-24T12:54:37;15.80;99.90
23755;DHT22;12057;52.042;6.830;2022-09-24T12:59:48;15.70;99.90
23755;DHT22;12057;52.042;6.830;2022-09-24T13:04:50;15.80;99.90
23755;DHT22;12057;52.042;6.830;2022-09-24T13:09:51;15.70;99.90
23755;DHT22;12057;52.042;6.830;2022-09-24T13:14:57;15.70;99.90
23755;DHT22;12057;52.042;6.830;2022-09-24T13:20:04;15.70;99.90
23755;DHT22;12057;52.042;6.830;2022-09-24T13:30:15;15.50;99.90
23755;DHT22;12057;52.042;6.830;2022-09-24T13:35:18;15.40;99.90
23755;DHT22;12057;52.042;6.830;2022-09-24T13:40:32;15.30;99.90
23755;DHT22;12057;52.042;6.830;2022-09-24T13:45:35;15.30;99.90
23755;DHT22;12057;52.042;6.830;2022-09-24T13:50:38;15.30;99.90
23755;DHT22;12057;52.042;6.830;2022-09-24T13:55:45;15.30;99.90
23755;DHT22;12057;52.042;6.830;2022-09-24T14:00:47;15.30;99.90
23755;DHT22;12057;52.042;6.830;2022-09-24T14:05:48;15.40;99.90
23755;DHT22;12057;52.042;6.830;2022-09-24T14:10:49;15.40;99.90
23755;DHT22;12057;52.042;6.830;2022-09-24T14:16:06;15.40;99.90
23755;DHT22;12057;52.042;6.830;2022-09-24T14:26:23;15.40;99.90
23755;DHT22;12057;52.042;6.830;2022-09-24T14:31:25;15.50;99.90
23755;DHT22;12057;52.042;6.830;2022-09-24T14:36:26;15.50;99.90
23755;DHT22;12057;52.042;6.830;2022-09-24T14:41:29;15.50;99.90
23755;DHT22;12057;52.042;6.830;2022-09-24T14:46:31;15.40;99.90
23755;DHT22;12057;52.042;6.830;2022-09-24T14:51:34;15.60;99.90
23755;DHT22;12057;52.042;6.830;2022-09-24T14:56:34;15.60;99.90
23755;DHT22;12057;52.042;6.830;2022-09-24T15:01:35;15.70;99.90
23755;DHT22;12057;52.042;6.830;2022-09-24T15:06:36;15.70;99.90
23755;DHT22;12057;52.042;6.830;2022-09-24T15:11:37;15.70;99.90
23755;DHT22;12057;52.042;6.830;2022-09-24T15:16:41;15.70;99.90
23755;DHT22;12057;52.042;6.830;2022-09-24T15:21:42;15.60;99.90
23755;DHT22;12057;52.042;6.830;2022-09-24T15:26:44;15.60;99.90
23755;DHT22;12057;52.042;6.830;2022-09-24T15:31:46;15.50;99.90
23755;DHT22;12057;52.042;6.830;2022-09-24T15:36:47;15.40;99.90
23755;DHT22;12057;52.042;6.830;2022-09-24T15:41:47;15.50;99.90
23755;DHT22;12057;52.042;6.830;2022-09-24T15:46:48;15.50;99.90
23755;DHT22;12057;52.042;6.830;2022-09-24T15:51:57;15.50;99.90
23755;DHT22;12057;52.042;6.830;2022-09-24T15:56:59;15.50;99.90
23755;DHT22;12057;52.042;6.830;2022-09-24T16:02:00;15.40;99.90
23755;DHT22;12057;52.042;6.830;2022-09-24T16:07:01;15.30;99.90
23755;DHT22;12057;52.042;6.830;2022-09-24T16:12:02;15.20;99.90
23755;DHT22;12057;52.042;6.830;2022-09-24T16:17:03;15.20;99.90
23755;DHT22;12057;52.042;6.830;2022-09-24T16:22:03;15.20;99.90
23755;DHT22;12057;52.042;6.830;2022-09-24T16:27:04;15.10;99.90
23755;DHT22;12057;52.042;6.830;2022-09-24T16:32:05;15.00;99.90
23755;DHT22;12057;52.042;6.830;2022-09-24T16:37:06;15.00;99.90
23755;DHT22;12057;52.042;6.830;2022-09-24T16:42:06;15.00;99.90
23755;DHT22;12057;52.042;6.830;2022-09-24T16:47:07;14.80;99.90
23755;DHT22;12057;52.042;6.830;2022-09-24T16:52:08;14.80;99.90
23755;DHT22;12057;52.042;6.830;2022-09-24T16:57:08;14.70;99.90
23755;DHT22;12057;52.042;6.830;2022-09-24T17:02:09;14.70;99.90
23755;DHT22;12057;52.042;6.830;2022-09-24T17:07:11;14.60;99.90
23755;DHT22;12057;52.042;6.830;2022-09-24T17:12:12;14.60;99.90
23755;DHT22;12057;52.042;6.830;2022-09-24T17:17:13;14.60;99.90
23755;DHT22;12057;52.042;6.830;2022-09-24T17:22:15;14.50;99.90
23755;DHT22;12057;52.042;6.830;2022-09-24T17:27:16;14.50;99.90
23755;DHT22;12057;52.042;6.830;2022-09-24T17:32:17;14.50;99.90
23755;DHT22;12057;52.042;6.830;2022-09-24T17:37:17;14.40;99.90
23755;DHT22;12057;52.042;6.830;2022-09-24T17:42:18;14.40;99.90
23755;DHT22;12057;52.042;6.830;2022-09-24T17:47:19;14.30;99.90
23755;DHT22;12057;52.042;6.830;2022-09-24T17:52:19;14.20;99.90
23755;DHT22;12057;52.042;6.830;2022-09-24T17:57:20;14.20;99.90
23755;DHT22;12057;52.042;6.830;2022-09-24T18:02:20;14.20;99.90
23755;DHT22;12057;52.042;6.830;2022-09-24T18:07:21;14.10;99.90
23755;DHT22;12057;52.042;6.830;2022-09-24T18:12:24;14.10;99.90
23755;DHT22;12057;52.042;6.830;2022-09-24T18:17:24;14.10;99.90
23755;DHT22;12057;52.042;6.830;2022-09-24T18:22:25;14.00;99.90
23755;DHT22;12057;52.042;6.830;2022-09-24T18:27:26;14.00;99.90
23755;DHT22;12057;52.042;6.830;2022-09-24T18:32:27;13.90;99.90
23755;DHT22;12057;52.042;6.830;2022-09-24T18:37:29;13.90;99.90
23755;DHT22;12057;52.042;6.830;2022-09-24T18:42:29;13.90;99.90
23755;DHT22;12057;52.042;6.830;2022-09-24T18:47:30;13.90;99.90
23755;DHT22;12057;52.042;6.830;2022-09-24T18:52:32;13.90;99.90
23755;DHT22;12057;52.042;6.830;2022-09-24T18:57:32;13.80;99.90
23755;DHT22;12057;52.042;6.830;2022-09-24T19:02:33;13.80;99.90
23755;DHT22;12057;52.042;6.830;2022-09-24T19:07:33;13.70;99.90
23755;DHT22;12057;52.042;6.830;2022-09-24T19:12:34;13.70;99.90
23755;DHT22;12057;52.042;6.830;2022-09-24T19:17:39;13.70;99.90
23755;DHT22;12057;52.042;6.830;2022-09-24T19:22:42;13.70;99.90
23755;DHT22;12057;52.042;6.830;2022-09-24T19:27:42;13.60;99.90
23755;DHT22;12057;52.042;6.830;2022-09-24T19:32:43;13.60;99.90
23755;DHT22;12057;52.042;6.830;2022-09-24T19:37:44;13.60;99.90
23755;DHT22;12057;52.042;6.830;2022-09-24T19:42:45;13.50;99.90
23755;DHT22;12057;52.042;6.830;2022-09-24T19:47:46;13.50;99.90
23755;DHT22;12057;52.042;6.830;2022-09-24T19:52:46;13.50;99.90
23755;DHT22;12057;52.042;6.830;2022-09-24T19:57:48;13.50;99.90
23755;DHT22;12057;52.042;6.830;2022-09-24T20:02:49;13.50;99.90
23755;DHT22;12057;52.042;6.830;2022-09-24T20:07:51;13.50;99.90
23755;DHT22;12057;52.042;6.830;2022-09-24T20:12:51;13.40;99.90
23755;DHT22;12057;52.042;6.830;2022-09-24T20:17:54;13.40;99.90
23755;DHT22;12057;52.042;6.830;2022-09-24T20:22:55;13.40;99.90
23755;DHT22;12057;52.042;6.830;2022-09-24T20:27:56;13.40;99.90
23755;DHT22;12057;52.042;6.830;2022-09-24T20:32:56;13.30;99.90
23755;DHT22;12057;52.042;6.830;2022-09-24T20:37:58;13.30;99.90
23755;DHT22;12057;52.042;6.830;2022-09-24T20:42:58;13.30;99.90
23755;DHT22;12057;52.042;6.830;2022-09-24T20:47:59;13.30;99.90
23755;DHT22;12057;52.042;6.830;2022-09-24T20:52:59;13.30;99.90
23755;DHT22;12057;52.042;6.830;2022-09-24T20:58:00;13.30;99.90
23755;DHT22;12057;52.042;6.830;2022-09-24T21:03:01;13.30;99.90
23755;DHT22;12057;52.042;6.830;2022-09-24T21:08:03;13.20;99.90
23755;DHT22;12057;52.042;6.830;2022-09-24T21:13:04;13.20;99.90
23755;DHT22;12057;52.042;6.830;2022-09-24T21:18:05;13.10;99.90
23755;DHT22;12057;52.042;6.830;2022-09-24T21:23:07;13.10;99.90
23755;DHT22;12057;52.042;6.830;2022-09-24T21:28:08;13.10;99.90
23755;DHT22;12057;52.042;6.830;2022-09-24T21:33:08;13.00;99.90
23755;DHT22;12057;52.042;6.830;2022-09-24T21:38:09;13.00;99.90
23755;DHT22;12057;52.042;6.830;2022-09-24T21:43:09;13.00;99.90
23755;DHT22;12057;52.042;6.830;2022-09-24T21:48:10;13.00;99.90
23755;DHT22;12057;52.042;6.830;2022-09-24T21:53:10;12.90;99.90
23755;DHT22;12057;52.042;6.830;2022-09-24T21:58:11;12.90;99.90
23755;DHT22;12057;52.042;6.830;2022-09-24T22:03:12;12.90;99.90
23755;DHT22;12057;52.042;6.830;2022-09-24T22:08:13;12.90;99.90
23755;DHT22;12057;52.042;6.830;2022-09-24T22:13:14;12.90;99.90
23755;DHT22;12057;52.042;6.830;2022-09-24T22:18:16;12.90;99.90
23755;DHT22;12057;52.042;6.830;2022-09-24T22:23:16;12.90;99.90
23755;DHT22;12057;52.042;6.830;2022-09-24T22:28:17;13.00;99.90
23755;DHT22;12057;52.042;6.830;2022-09-24T22:33:22;12.90;99.90
23755;DHT22;12057;52.042;6.830;2022-09-24T22:38:41;12.90;99.90
23755;DHT22;12057;52.042;6.830;2022-09-24T22:43:42;12.90;99.90
23755;DHT22;12057;52.042;6.830;2022-09-24T22:48:43;12.90;99.90
23755;DHT22;12057;52.042;6.830;2022-09-24T22:53:44;12.90;99.90
23755;DHT22;12057;52.042;6.830;2022-09-24T22:58:49;12.80;99.90
23755;DHT22;12057;52.042;6.830;2022-09-24T23:03:50;12.70;99.90
23755;DHT22;12057;52.042;6.830;2022-09-24T23:08:52;12.60;99.90
23755;DHT22;12057;52.042;6.830;2022-09-24T23:13:54;12.50;99.90
23755;DHT22;12057;52.042;6.830;2022-09-24T23:18:56;12.40;99.90
23755;DHT22;12057;52.042;6.830;2022-09-24T23:23:58;12.30;99.90
23755;DHT22;12057;52.042;6.830;2022-09-24T23:28:59;12.20;99.90
23755;DHT22;12057;52.042;6.830;2022-09-24T23:34:06;12.10;99.90
23755;DHT22;12057;52.042;6.830;2022-09-24T23:39:15;12.00;99.90
23755;DHT22;12057;52.042;6.830;2022-09-24T23:44:22;11.90;99.90
23755;DHT22;12057;52.042;6.830;2022-09-24T23:49:30;11.80;99.90
23755;DHT22;12057;52.042;6.830;2022-09-24T23:54:32;11.80;99.90
23755;DHT22;12057;52.042;6.830;2022-09-24T23:59:36;11.60;99.90
